sensor_id;sensor_type;location;lat;lon;timestamp;P1;durP1;ratioP1;P2;durP2;ratioP2
52033;SDS011;38045;52.988;6.536;2023-07-08T00:00:25;7.93;;;3.47;;
52033;SDS011;38045;52.988;6.536;2023-07-08T00:03:06;5.50;;;3.13;;
52033;SDS011;38045;52.988;6.536;2023-07-08T00:05:39;6.60;;;4.15;;
52033;SDS011;38045;52.988;6.536;2023-07-08T00:08:14;10.55;;;4.97;;
52033;SDS011;38045;52.988;6.536;2023-07-08T00:10:56;3.63;;;3.28;;
52033;SDS011;38045;52.988;6.536;2023-07-08T00:13:34;5.20;;;4.38;;
52033;SDS011;38045;52.988;6.536;2023-07-08T00:16:11;5.20;;;3.50;;
52033;SDS011;38045;52.988;6.536;2023-07-08T00:18:51;5.88;;;4.25;;
52033;SDS011;38045;52.988;6.536;2023-07-08T00:21:20;5.15;;;3.33;;
52033;SDS011;38045;52.988;6.536;2023-07-08T00:24:01;7.82;;;4.25;;
52033;SDS011;38045;52.988;6.536;2023-07-08T00:26:40;5.05;;;3.58;;
52033;SDS011;38045;52.988;6.536;2023-07-08T00:29:15;4.10;;;3.40;;
52033;SDS011;38045;52.988;6.536;2023-07-08T00:31:55;14.38;;;4.28;;
52033;SDS011;38045;52.988;6.536;2023-07-08T00:34:34;6.40;;;4.10;;
52033;SDS011;38045;52.988;6.536;2023-07-08T00:37:22;5.13;;;3.90;;
52033;SDS011;38045;52.988;6.536;2023-07-08T00:39:58;4.30;;;3.72;;
52033;SDS011;38045;52.988;6.536;2023-07-08T00:42:49;5.38;;;3.85;;
52033;SDS011;38045;52.988;6.536;2023-07-08T00:45:37;5.68;;;4.03;;
52033;SDS011;38045;52.988;6.536;2023-07-08T00:48:23;4.13;;;3.40;;
52033;SDS011;38045;52.988;6.536;2023-07-08T00:51:07;4.18;;;3.47;;
52033;SDS011;38045;52.988;6.536;2023-07-08T00:53:45;6.28;;;3.88;;
52033;SDS011;38045;52.988;6.536;2023-07-08T00:56:45;4.30;;;3.80;;
52033;SDS011;38045;52.988;6.536;2023-07-08T00:59:35;5.25;;;3.35;;
52033;SDS011;38045;52.988;6.536;2023-07-08T01:02:23;4.45;;;3.53;;
52033;SDS011;38045;52.988;6.536;2023-07-08T01:05:07;6.90;;;3.67;;
52033;SDS011;38045;52.988;6.536;2023-07-08T01:10:43;4.05;;;3.40;;
52033;SDS011;38045;52.988;6.536;2023-07-08T01:13:24;10.20;;;4.47;;
52033;SDS011;38045;52.988;6.536;2023-07-08T01:16:13;8.55;;;4.10;;
52033;SDS011;38045;52.988;6.536;2023-07-08T01:19:01;4.30;;;4.00;;
52033;SDS011;38045;52.988;6.536;2023-07-08T01:21:45;5.82;;;3.65;;
52033;SDS011;38045;52.988;6.536;2023-07-08T01:24:34;5.72;;;5.10;;
52033;SDS011;38045;52.988;6.536;2023-07-08T01:27:15;8.05;;;3.80;;
52033;SDS011;38045;52.988;6.536;2023-07-08T01:29:50;3.92;;;3.63;;
52033;SDS011;38045;52.988;6.536;2023-07-08T01:32:28;5.68;;;5.18;;
52033;SDS011;38045;52.988;6.536;2023-07-08T01:35:11;5.85;;;4.05;;
52033;SDS011;38045;52.988;6.536;2023-07-08T01:40:47;4.38;;;3.67;;
52033;SDS011;38045;52.988;6.536;2023-07-08T01:43:27;5.72;;;3.75;;
52033;SDS011;38045;52.988;6.536;2023-07-08T01:46:04;4.15;;;3.75;;
52033;SDS011;38045;52.988;6.536;2023-07-08T01:48:57;6.78;;;4.05;;
52033;SDS011;38045;52.988;6.536;2023-07-08T01:51:38;7.85;;;4.38;;
52033;SDS011;38045;52.988;6.536;2023-07-08T01:54:21;9.15;;;5.63;;
52033;SDS011;38045;52.988;6.536;2023-07-08T01:57:09;7.00;;;4.72;;
52033;SDS011;38045;52.988;6.536;2023-07-08T01:59:48;8.73;;;5.55;;
52033;SDS011;38045;52.988;6.536;2023-07-08T02:02:38;6.78;;;3.85;;
52033;SDS011;38045;52.988;6.536;2023-07-08T02:05:28;5.45;;;4.95;;
52033;SDS011;38045;52.988;6.536;2023-07-08T02:08:05;6.47;;;4.50;;
52033;SDS011;38045;52.988;6.536;2023-07-08T02:10:50;6.13;;;3.83;;
52033;SDS011;38045;52.988;6.536;2023-07-08T02:13:51;12.38;;;5.25;;
52033;SDS011;38045;52.988;6.536;2023-07-08T02:16:29;7.10;;;5.13;;
52033;SDS011;38045;52.988;6.536;2023-07-08T02:19:22;6.13;;;4.80;;
52033;SDS011;38045;52.988;6.536;2023-07-08T02:22:00;6.40;;;4.07;;
52033;SDS011;38045;52.988;6.536;2023-07-08T02:24:37;4.18;;;3.58;;
52033;SDS011;38045;52.988;6.536;2023-07-08T02:27:16;5.78;;;3.63;;
52033;SDS011;38045;52.988;6.536;2023-07-08T02:29:47;5.55;;;4.38;;
52033;SDS011;38045;52.988;6.536;2023-07-08T02:32:30;5.38;;;4.88;;
52033;SDS011;38045;52.988;6.536;2023-07-08T02:35:14;8.13;;;4.13;;
52033;SDS011;38045;52.988;6.536;2023-07-08T02:37:49;6.93;;;4.07;;
52033;SDS011;38045;52.988;6.536;2023-07-08T02:40:22;5.15;;;4.65;;
52033;SDS011;38045;52.988;6.536;2023-07-08T02:42:57;5.53;;;4.38;;
52033;SDS011;38045;52.988;6.536;2023-07-08T02:45:28;5.90;;;5.28;;
52033;SDS011;38045;52.988;6.536;2023-07-08T02:47:59;6.28;;;5.13;;
52033;SDS011;38045;52.988;6.536;2023-07-08T02:50:46;7.55;;;4.75;;
52033;SDS011;38045;52.988;6.536;2023-07-08T02:53:15;7.30;;;5.93;;
52033;SDS011;38045;52.988;6.536;2023-07-08T02:55:55;5.15;;;4.63;;
52033;SDS011;38045;52.988;6.536;2023-07-08T02:58:34;6.78;;;4.28;;
52033;SDS011;38045;52.988;6.536;2023-07-08T03:01:12;5.87;;;5.00;;
52033;SDS011;38045;52.988;6.536;2023-07-08T03:03:44;11.15;;;4.93;;
52033;SDS011;38045;52.988;6.536;2023-07-08T03:06:26;5.45;;;4.32;;
52033;SDS011;38045;52.988;6.536;2023-07-08T03:09:02;5.65;;;4.90;;
52033;SDS011;38045;52.988;6.536;2023-07-08T03:11:33;5.38;;;4.75;;
52033;SDS011;38045;52.988;6.536;2023-07-08T03:14:07;4.93;;;4.25;;
52033;SDS011;38045;52.988;6.536;2023-07-08T03:16:45;9.15;;;6.90;;
52033;SDS011;38045;52.988;6.536;2023-07-08T03:19:21;6.72;;;5.80;;
52033;SDS011;38045;52.988;6.536;2023-07-08T03:21:57;9.93;;;6.13;;
52033;SDS011;38045;52.988;6.536;2023-07-08T03:24:35;6.47;;;5.28;;
52033;SDS011;38045;52.988;6.536;2023-07-08T03:27:19;5.10;;;4.55;;
52033;SDS011;38045;52.988;6.536;2023-07-08T03:29:57;8.10;;;6.28;;
52033;SDS011;38045;52.988;6.536;2023-07-08T03:32:34;9.70;;;5.45;;
52033;SDS011;38045;52.988;6.536;2023-07-08T03:35:08;5.60;;;4.22;;
52033;SDS011;38045;52.988;6.536;2023-07-08T03:37:46;7.32;;;5.45;;
52033;SDS011;38045;52.988;6.536;2023-07-08T03:40:34;7.97;;;5.63;;
52033;SDS011;38045;52.988;6.536;2023-07-08T03:45:50;6.75;;;4.78;;
52033;SDS011;38045;52.988;6.536;2023-07-08T03:48:21;6.72;;;5.15;;
52033;SDS011;38045;52.988;6.536;2023-07-08T03:51:01;7.55;;;6.88;;
52033;SDS011;38045;52.988;6.536;2023-07-08T03:53:41;7.32;;;6.00;;
52033;SDS011;38045;52.988;6.536;2023-07-08T03:56:19;9.45;;;5.40;;
52033;SDS011;38045;52.988;6.536;2023-07-08T03:59:03;5.97;;;4.93;;
52033;SDS011;38045;52.988;6.536;2023-07-08T04:01:40;8.77;;;6.15;;
52033;SDS011;38045;52.988;6.536;2023-07-08T04:04:16;6.80;;;6.13;;
52033;SDS011;38045;52.988;6.536;2023-07-08T04:06:57;6.28;;;5.03;;
52033;SDS011;38045;52.988;6.536;2023-07-08T04:09:32;5.35;;;4.85;;
52033;SDS011;38045;52.988;6.536;2023-07-08T04:12:13;10.38;;;6.30;;
52033;SDS011;38045;52.988;6.536;2023-07-08T04:14:55;6.43;;;5.37;;
52033;SDS011;38045;52.988;6.536;2023-07-08T04:17:42;6.82;;;5.22;;
52033;SDS011;38045;52.988;6.536;2023-07-08T04:20:18;7.50;;;5.70;;
52033;SDS011;38045;52.988;6.536;2023-07-08T04:22:52;12.60;;;5.97;;
52033;SDS011;38045;52.988;6.536;2023-07-08T04:25:37;5.72;;;5.22;;
52033;SDS011;38045;52.988;6.536;2023-07-08T04:28:30;6.40;;;5.80;;
52033;SDS011;38045;52.988;6.536;2023-07-08T04:31:18;6.00;;;5.20;;
52033;SDS011;38045;52.988;6.536;2023-07-08T04:33:57;5.55;;;5.03;;
52033;SDS011;38045;52.988;6.536;2023-07-08T04:36:35;8.27;;;6.10;;
52033;SDS011;38045;52.988;6.536;2023-07-08T04:39:12;7.05;;;5.20;;
52033;SDS011;38045;52.988;6.536;2023-07-08T04:41:47;6.45;;;5.45;;
52033;SDS011;38045;52.988;6.536;2023-07-08T04:44:28;5.97;;;5.28;;
52033;SDS011;38045;52.988;6.536;2023-07-08T04:47:04;7.45;;;5.72;;
52033;SDS011;38045;52.988;6.536;2023-07-08T04:49:55;6.32;;;5.72;;
52033;SDS011;38045;52.988;6.536;2023-07-08T04:52:34;6.10;;;5.60;;
52033;SDS011;38045;52.988;6.536;2023-07-08T04:55:18;5.15;;;4.65;;
52033;SDS011;38045;52.988;6.536;2023-07-08T04:58:13;6.90;;;5.63;;
52033;SDS011;38045;52.988;6.536;2023-07-08T05:01:01;6.45;;;5.13;;
52033;SDS011;38045;52.988;6.536;2023-07-08T05:03:37;7.33;;;6.47;;
52033;SDS011;38045;52.988;6.536;2023-07-08T05:06:15;7.43;;;6.25;;
52033;SDS011;38045;52.988;6.536;2023-07-08T05:08:59;5.75;;;5.22;;
52033;SDS011;38045;52.988;6.536;2023-07-08T05:11:37;8.02;;;5.45;;
52033;SDS011;38045;52.988;6.536;2023-07-08T05:14:11;6.90;;;5.07;;
52033;SDS011;38045;52.988;6.536;2023-07-08T05:16:44;6.13;;;5.53;;
52033;SDS011;38045;52.988;6.536;2023-07-08T05:19:18;8.75;;;6.28;;
52033;SDS011;38045;52.988;6.536;2023-07-08T05:21:58;5.90;;;5.40;;
52033;SDS011;38045;52.988;6.536;2023-07-08T05:27:08;6.63;;;5.97;;
52033;SDS011;38045;52.988;6.536;2023-07-08T05:29:41;5.68;;;5.05;;
52033;SDS011;38045;52.988;6.536;2023-07-08T05:32:22;7.93;;;5.97;;
52033;SDS011;38045;52.988;6.536;2023-07-08T05:34:52;6.03;;;4.88;;
52033;SDS011;38045;52.988;6.536;2023-07-08T05:37:37;5.82;;;5.18;;
52033;SDS011;38045;52.988;6.536;2023-07-08T05:40:13;6.03;;;5.43;;
52033;SDS011;38045;52.988;6.536;2023-07-08T05:42:48;6.35;;;5.78;;
52033;SDS011;38045;52.988;6.536;2023-07-08T05:45:22;9.80;;;6.00;;
52033;SDS011;38045;52.988;6.536;2023-07-08T05:48:01;6.18;;;4.75;;
52033;SDS011;38045;52.988;6.536;2023-07-08T05:50:41;7.50;;;5.05;;
52033;SDS011;38045;52.988;6.536;2023-07-08T05:53:23;10.05;;;5.40;;
52033;SDS011;38045;52.988;6.536;2023-07-08T05:56:01;6.40;;;4.85;;
52033;SDS011;38045;52.988;6.536;2023-07-08T05:58:43;5.63;;;3.90;;
52033;SDS011;38045;52.988;6.536;2023-07-08T06:01:11;5.47;;;4.72;;
52033;SDS011;38045;52.988;6.536;2023-07-08T06:03:39;10.40;;;5.07;;
52033;SDS011;38045;52.988;6.536;2023-07-08T06:06:06;6.00;;;4.60;;
52033;SDS011;38045;52.988;6.536;2023-07-08T06:08:35;4.83;;;4.27;;
52033;SDS011;38045;52.988;6.536;2023-07-08T06:11:08;5.78;;;5.20;;
52033;SDS011;38045;52.988;6.536;2023-07-08T06:13:41;7.43;;;5.30;;
52033;SDS011;38045;52.988;6.536;2023-07-08T06:16:08;4.63;;;4.20;;
52033;SDS011;38045;52.988;6.536;2023-07-08T06:18:36;5.57;;;5.00;;
52033;SDS011;38045;52.988;6.536;2023-07-08T06:21:05;5.78;;;4.25;;
52033;SDS011;38045;52.988;6.536;2023-07-08T06:23:32;4.30;;;3.80;;
52033;SDS011;38045;52.988;6.536;2023-07-08T06:26:00;5.22;;;4.47;;
52033;SDS011;38045;52.988;6.536;2023-07-08T06:28:30;4.78;;;3.95;;
52033;SDS011;38045;52.988;6.536;2023-07-08T06:30:58;4.68;;;4.28;;
52033;SDS011;38045;52.988;6.536;2023-07-08T06:33:26;3.95;;;3.63;;
52033;SDS011;38045;52.988;6.536;2023-07-08T06:35:53;4.10;;;3.70;;
52033;SDS011;38045;52.988;6.536;2023-07-08T06:38:20;6.97;;;3.97;;
52033;SDS011;38045;52.988;6.536;2023-07-08T06:40:47;6.53;;;3.92;;
52033;SDS011;38045;52.988;6.536;2023-07-08T06:43:15;8.07;;;5.45;;
52033;SDS011;38045;52.988;6.536;2023-07-08T06:45:42;4.72;;;3.80;;
52033;SDS011;38045;52.988;6.536;2023-07-08T06:48:10;4.97;;;4.38;;
52033;SDS011;38045;52.988;6.536;2023-07-08T06:50:46;3.70;;;3.40;;
52033;SDS011;38045;52.988;6.536;2023-07-08T06:53:14;6.95;;;4.15;;
52033;SDS011;38045;52.988;6.536;2023-07-08T06:55:43;5.70;;;3.78;;
52033;SDS011;38045;52.988;6.536;2023-07-08T06:58:29;3.20;;;2.90;;
52033;SDS011;38045;52.988;6.536;2023-07-08T07:01:21;3.97;;;3.63;;
52033;SDS011;38045;52.988;6.536;2023-07-08T07:03:59;7.25;;;3.38;;
52033;SDS011;38045;52.988;6.536;2023-07-08T07:06:27;5.90;;;4.53;;
52033;SDS011;38045;52.988;6.536;2023-07-08T07:08:57;4.13;;;3.72;;
52033;SDS011;38045;52.988;6.536;2023-07-08T07:11:25;3.97;;;3.50;;
52033;SDS011;38045;52.988;6.536;2023-07-08T07:13:53;4.38;;;3.80;;
52033;SDS011;38045;52.988;6.536;2023-07-08T07:16:23;3.80;;;3.45;;
52033;SDS011;38045;52.988;6.536;2023-07-08T07:18:54;4.43;;;3.67;;
52033;SDS011;38045;52.988;6.536;2023-07-08T07:21:24;3.38;;;2.78;;
52033;SDS011;38045;52.988;6.536;2023-07-08T07:23:51;4.50;;;3.63;;
52033;SDS011;38045;52.988;6.536;2023-07-08T07:26:19;5.28;;;3.97;;
52033;SDS011;38045;52.988;6.536;2023-07-08T07:28:49;5.35;;;3.92;;
52033;SDS011;38045;52.988;6.536;2023-07-08T07:31:16;6.07;;;4.70;;
52033;SDS011;38045;52.988;6.536;2023-07-08T07:33:44;4.40;;;3.65;;
52033;SDS011;38045;52.988;6.536;2023-07-08T07:36:12;13.10;;;4.88;;
52033;SDS011;38045;52.988;6.536;2023-07-08T07:38:39;3.58;;;3.28;;
52033;SDS011;38045;52.988;6.536;2023-07-08T07:41:07;4.03;;;3.45;;
52033;SDS011;38045;52.988;6.536;2023-07-08T07:43:39;5.68;;;3.67;;
52033;SDS011;38045;52.988;6.536;2023-07-08T07:46:07;4.95;;;3.40;;
52033;SDS011;38045;52.988;6.536;2023-07-08T07:51:06;5.22;;;3.80;;
52033;SDS011;38045;52.988;6.536;2023-07-08T07:53:37;4.78;;;4.32;;
52033;SDS011;38045;52.988;6.536;2023-07-08T07:56:05;3.60;;;3.30;;
52033;SDS011;38045;52.988;6.536;2023-07-08T07:58:32;3.50;;;3.20;;
52033;SDS011;38045;52.988;6.536;2023-07-08T08:01:03;5.25;;;4.63;;
52033;SDS011;38045;52.988;6.536;2023-07-08T08:03:33;3.78;;;3.47;;
52033;SDS011;38045;52.988;6.536;2023-07-08T08:06:01;6.57;;;3.70;;
52033;SDS011;38045;52.988;6.536;2023-07-08T08:08:28;4.35;;;3.80;;
52033;SDS011;38045;52.988;6.536;2023-07-08T08:10:56;3.45;;;3.15;;
52033;SDS011;38045;52.988;6.536;2023-07-08T08:13:23;4.25;;;3.35;;
52033;SDS011;38045;52.988;6.536;2023-07-08T08:15:55;6.90;;;3.80;;
52033;SDS011;38045;52.988;6.536;2023-07-08T08:18:23;5.90;;;4.00;;
52033;SDS011;38045;52.988;6.536;2023-07-08T08:20:53;5.13;;;3.03;;
52033;SDS011;38045;52.988;6.536;2023-07-08T08:23:22;5.95;;;4.20;;
52033;SDS011;38045;52.988;6.536;2023-07-08T08:25:52;5.32;;;3.30;;
52033;SDS011;38045;52.988;6.536;2023-07-08T08:28:23;3.42;;;3.13;;
52033;SDS011;38045;52.988;6.536;2023-07-08T08:30:50;6.47;;;4.25;;
52033;SDS011;38045;52.988;6.536;2023-07-08T08:33:20;7.70;;;3.45;;
52033;SDS011;38045;52.988;6.536;2023-07-08T08:35:48;7.78;;;3.97;;
52033;SDS011;38045;52.988;6.536;2023-07-08T08:38:16;3.38;;;2.95;;
52033;SDS011;38045;52.988;6.536;2023-07-08T08:40:44;7.10;;;3.85;;
52033;SDS011;38045;52.988;6.536;2023-07-08T08:43:16;7.72;;;4.05;;
52033;SDS011;38045;52.988;6.536;2023-07-08T08:48:24;3.88;;;3.58;;
52033;SDS011;38045;52.988;6.536;2023-07-08T08:50:58;3.80;;;3.22;;
52033;SDS011;38045;52.988;6.536;2023-07-08T08:53:34;5.90;;;3.95;;
52033;SDS011;38045;52.988;6.536;2023-07-08T08:56:21;6.10;;;3.55;;
52033;SDS011;38045;52.988;6.536;2023-07-08T08:58:56;4.05;;;3.28;;
52033;SDS011;38045;52.988;6.536;2023-07-08T09:01:32;6.00;;;3.78;;
52033;SDS011;38045;52.988;6.536;2023-07-08T09:04:11;4.13;;;3.72;;
52033;SDS011;38045;52.988;6.536;2023-07-08T09:06:45;3.90;;;3.58;;
52033;SDS011;38045;52.988;6.536;2023-07-08T09:09:20;6.43;;;4.50;;
52033;SDS011;38045;52.988;6.536;2023-07-08T09:12:01;5.93;;;3.70;;
52033;SDS011;38045;52.988;6.536;2023-07-08T09:14:34;4.70;;;3.75;;
52033;SDS011;38045;52.988;6.536;2023-07-08T09:17:23;5.22;;;3.25;;
52033;SDS011;38045;52.988;6.536;2023-07-08T09:22:53;8.10;;;3.35;;
52033;SDS011;38045;52.988;6.536;2023-07-08T09:25:57;6.55;;;4.07;;
52033;SDS011;38045;52.988;6.536;2023-07-08T09:28:40;5.60;;;4.07;;
52033;SDS011;38045;52.988;6.536;2023-07-08T09:31:17;3.35;;;3.15;;
52033;SDS011;38045;52.988;6.536;2023-07-08T09:33:53;5.32;;;4.47;;
52033;SDS011;38045;52.988;6.536;2023-07-08T09:36:43;4.43;;;4.13;;
52033;SDS011;38045;52.988;6.536;2023-07-08T09:39:14;3.97;;;3.67;;
52033;SDS011;38045;52.988;6.536;2023-07-08T09:41:44;4.88;;;4.00;;
52033;SDS011;38045;52.988;6.536;2023-07-08T09:44:14;5.07;;;4.40;;
52033;SDS011;38045;52.988;6.536;2023-07-08T09:46:55;5.85;;;3.75;;
52033;SDS011;38045;52.988;6.536;2023-07-08T09:49:26;4.55;;;4.13;;
52033;SDS011;38045;52.988;6.536;2023-07-08T09:51:58;3.95;;;3.75;;
52033;SDS011;38045;52.988;6.536;2023-07-08T09:54:26;5.78;;;4.07;;
52033;SDS011;38045;52.988;6.536;2023-07-08T09:57:04;5.15;;;4.18;;
52033;SDS011;38045;52.988;6.536;2023-07-08T09:59:59;3.83;;;3.22;;
52033;SDS011;38045;52.988;6.536;2023-07-08T10:05:17;3.83;;;3.63;;
52033;SDS011;38045;52.988;6.536;2023-07-08T10:07:52;7.07;;;4.63;;
52033;SDS011;38045;52.988;6.536;2023-07-08T10:10:34;4.88;;;4.20;;
52033;SDS011;38045;52.988;6.536;2023-07-08T10:13:12;7.30;;;4.38;;
52033;SDS011;38045;52.988;6.536;2023-07-08T10:15:52;6.63;;;3.60;;
52033;SDS011;38045;52.988;6.536;2023-07-08T10:18:30;5.18;;;3.97;;
52033;SDS011;38045;52.988;6.536;2023-07-08T10:21:03;4.18;;;3.88;;
52033;SDS011;38045;52.988;6.536;2023-07-08T10:23:42;6.47;;;3.97;;
52033;SDS011;38045;52.988;6.536;2023-07-08T10:28:57;5.75;;;4.75;;
52033;SDS011;38045;52.988;6.536;2023-07-08T10:34:46;4.50;;;4.05;;
52033;SDS011;38045;52.988;6.536;2023-07-08T10:37:47;4.18;;;3.72;;
52033;SDS011;38045;52.988;6.536;2023-07-08T10:40:47;4.13;;;3.72;;
52033;SDS011;38045;52.988;6.536;2023-07-08T10:43:31;4.88;;;4.18;;
52033;SDS011;38045;52.988;6.536;2023-07-08T10:46:24;4.43;;;4.03;;
52033;SDS011;38045;52.988;6.536;2023-07-08T10:49:34;4.53;;;4.00;;
52033;SDS011;38045;52.988;6.536;2023-07-08T10:55:41;4.70;;;4.05;;
52033;SDS011;38045;52.988;6.536;2023-07-08T11:01:08;5.30;;;4.07;;
52033;SDS011;38045;52.988;6.536;2023-07-08T11:03:50;5.75;;;3.38;;
52033;SDS011;38045;52.988;6.536;2023-07-08T11:06:53;4.47;;;4.07;;
52033;SDS011;38045;52.988;6.536;2023-07-08T11:09:40;4.30;;;3.83;;
52033;SDS011;38045;52.988;6.536;2023-07-08T11:15:21;4.15;;;3.75;;
52033;SDS011;38045;52.988;6.536;2023-07-08T11:17:56;4.90;;;3.90;;
52033;SDS011;38045;52.988;6.536;2023-07-08T11:20:34;6.25;;;4.30;;
52033;SDS011;38045;52.988;6.536;2023-07-08T11:23:21;8.75;;;4.82;;
52033;SDS011;38045;52.988;6.536;2023-07-08T11:25:59;4.68;;;3.60;;
52033;SDS011;38045;52.988;6.536;2023-07-08T11:28:37;7.97;;;4.32;;
52033;SDS011;38045;52.988;6.536;2023-07-08T11:31:05;4.28;;;3.92;;
52033;SDS011;38045;52.988;6.536;2023-07-08T11:33:33;10.77;;;4.82;;
52033;SDS011;38045;52.988;6.536;2023-07-08T11:36:04;5.30;;;3.42;;
52033;SDS011;38045;52.988;6.536;2023-07-08T11:38:36;4.05;;;3.70;;
52033;SDS011;38045;52.988;6.536;2023-07-08T11:41:15;6.18;;;4.00;;
52033;SDS011;38045;52.988;6.536;2023-07-08T11:43:47;3.88;;;3.47;;
52033;SDS011;38045;52.988;6.536;2023-07-08T11:46:26;4.75;;;3.88;;
52033;SDS011;38045;52.988;6.536;2023-07-08T11:48:56;4.70;;;4.15;;
52033;SDS011;38045;52.988;6.536;2023-07-08T11:51:43;4.22;;;3.85;;
52033;SDS011;38045;52.988;6.536;2023-07-08T11:56:58;4.40;;;4.00;;
52033;SDS011;38045;52.988;6.536;2023-07-08T11:59:30;6.75;;;4.00;;
52033;SDS011;38045;52.988;6.536;2023-07-08T12:02:11;4.50;;;4.10;;
52033;SDS011;38045;52.988;6.536;2023-07-08T12:05:02;4.72;;;3.20;;
52033;SDS011;38045;52.988;6.536;2023-07-08T12:07:40;5.72;;;4.57;;
52033;SDS011;38045;52.988;6.536;2023-07-08T12:13:01;4.60;;;4.20;;
52033;SDS011;38045;52.988;6.536;2023-07-08T12:15:30;3.60;;;3.33;;
52033;SDS011;38045;52.988;6.536;2023-07-08T12:18:10;5.50;;;4.38;;
52033;SDS011;38045;52.988;6.536;2023-07-08T12:20:39;5.40;;;4.30;;
52033;SDS011;38045;52.988;6.536;2023-07-08T12:23:18;6.70;;;3.92;;
52033;SDS011;38045;52.988;6.536;2023-07-08T12:25:47;6.78;;;4.38;;
52033;SDS011;38045;52.988;6.536;2023-07-08T12:28:14;5.80;;;4.63;;
52033;SDS011;38045;52.988;6.536;2023-07-08T12:30:42;6.57;;;4.47;;
52033;SDS011;38045;52.988;6.536;2023-07-08T12:33:12;9.25;;;4.93;;
52033;SDS011;38045;52.988;6.536;2023-07-08T12:35:42;4.47;;;4.03;;
52033;SDS011;38045;52.988;6.536;2023-07-08T12:40:54;5.20;;;4.80;;
52033;SDS011;38045;52.988;6.536;2023-07-08T12:43:23;4.63;;;4.13;;
52033;SDS011;38045;52.988;6.536;2023-07-08T12:45:54;4.85;;;4.45;;
52033;SDS011;38045;52.988;6.536;2023-07-08T12:48:21;7.55;;;5.00;;
52033;SDS011;38045;52.988;6.536;2023-07-08T12:50:49;4.43;;;4.00;;
52033;SDS011;38045;52.988;6.536;2023-07-08T12:53:20;4.82;;;4.32;;
52033;SDS011;38045;52.988;6.536;2023-07-08T12:55:47;5.18;;;4.72;;
52033;SDS011;38045;52.988;6.536;2023-07-08T12:58:23;6.50;;;4.45;;
52033;SDS011;38045;52.988;6.536;2023-07-08T13:00:57;6.60;;;4.82;;
52033;SDS011;38045;52.988;6.536;2023-07-08T13:03:28;5.18;;;4.70;;
52033;SDS011;38045;52.988;6.536;2023-07-08T13:05:58;4.50;;;4.07;;
52033;SDS011;38045;52.988;6.536;2023-07-08T13:08:27;6.50;;;4.63;;
52033;SDS011;38045;52.988;6.536;2023-07-08T13:11:01;5.63;;;4.93;;
52033;SDS011;38045;52.988;6.536;2023-07-08T13:13:37;7.20;;;5.13;;
52033;SDS011;38045;52.988;6.536;2023-07-08T13:16:10;5.55;;;3.92;;
52033;SDS011;38045;52.988;6.536;2023-07-08T13:18:39;6.53;;;4.57;;
52033;SDS011;38045;52.988;6.536;2023-07-08T13:21:14;5.65;;;4.43;;
52033;SDS011;38045;52.988;6.536;2023-07-08T13:23:43;5.55;;;5.05;;
52033;SDS011;38045;52.988;6.536;2023-07-08T13:26:14;5.95;;;5.32;;
52033;SDS011;38045;52.988;6.536;2023-07-08T13:28:43;7.65;;;4.80;;
52033;SDS011;38045;52.988;6.536;2023-07-08T13:33:50;5.70;;;4.65;;
52033;SDS011;38045;52.988;6.536;2023-07-08T13:36:21;8.63;;;5.45;;
52033;SDS011;38045;52.988;6.536;2023-07-08T13:38:50;9.27;;;6.03;;
52033;SDS011;38045;52.988;6.536;2023-07-08T13:41:20;11.63;;;6.77;;
52033;SDS011;38045;52.988;6.536;2023-07-08T13:43:48;6.15;;;5.55;;
52033;SDS011;38045;52.988;6.536;2023-07-08T13:46:28;9.85;;;6.03;;
52033;SDS011;38045;52.988;6.536;2023-07-08T13:49:07;8.75;;;6.13;;
52033;SDS011;38045;52.988;6.536;2023-07-08T13:51:48;6.00;;;5.13;;
52033;SDS011;38045;52.988;6.536;2023-07-08T13:54:19;7.32;;;6.63;;
52033;SDS011;38045;52.988;6.536;2023-07-08T13:57:00;6.63;;;5.70;;
52033;SDS011;38045;52.988;6.536;2023-07-08T13:59:34;7.97;;;6.40;;
52033;SDS011;38045;52.988;6.536;2023-07-08T14:02:15;6.00;;;5.40;;
52033;SDS011;38045;52.988;6.536;2023-07-08T14:04:52;5.60;;;5.13;;
52033;SDS011;38045;52.988;6.536;2023-07-08T14:07:22;6.95;;;6.18;;
52033;SDS011;38045;52.988;6.536;2023-07-08T14:09:51;7.80;;;7.00;;
52033;SDS011;38045;52.988;6.536;2023-07-08T14:14:51;12.35;;;6.53;;
52033;SDS011;38045;52.988;6.536;2023-07-08T14:17:23;5.90;;;5.40;;
52033;SDS011;38045;52.988;6.536;2023-07-08T14:19:54;6.45;;;5.43;;
52033;SDS011;38045;52.988;6.536;2023-07-08T14:24:53;6.90;;;5.78;;
52033;SDS011;38045;52.988;6.536;2023-07-08T14:27:24;8.27;;;6.13;;
52033;SDS011;38045;52.988;6.536;2023-07-08T14:29:52;7.75;;;6.47;;
52033;SDS011;38045;52.988;6.536;2023-07-08T14:32:23;7.18;;;6.18;;
52033;SDS011;38045;52.988;6.536;2023-07-08T14:35:10;8.60;;;6.72;;
52033;SDS011;38045;52.988;6.536;2023-07-08T14:37:44;6.38;;;5.78;;
52033;SDS011;38045;52.988;6.536;2023-07-08T14:40:25;14.30;;;7.57;;
52033;SDS011;38045;52.988;6.536;2023-07-08T14:42:59;11.57;;;7.13;;
52033;SDS011;38045;52.988;6.536;2023-07-08T14:45:33;9.32;;;5.82;;
52033;SDS011;38045;52.988;6.536;2023-07-08T14:48:12;6.80;;;6.10;;
52033;SDS011;38045;52.988;6.536;2023-07-08T14:50:40;7.43;;;6.47;;
52033;SDS011;38045;52.988;6.536;2023-07-08T14:53:07;10.40;;;7.05;;
52033;SDS011;38045;52.988;6.536;2023-07-08T14:55:35;7.43;;;6.78;;
52033;SDS011;38045;52.988;6.536;2023-07-08T14:58:03;8.65;;;5.72;;
52033;SDS011;38045;52.988;6.536;2023-07-08T15:00:31;10.32;;;6.55;;
52033;SDS011;38045;52.988;6.536;2023-07-08T15:02:58;9.67;;;5.97;;
52033;SDS011;38045;52.988;6.536;2023-07-08T15:05:28;8.23;;;6.05;;
52033;SDS011;38045;52.988;6.536;2023-07-08T15:07:56;10.73;;;6.63;;
52033;SDS011;38045;52.988;6.536;2023-07-08T15:10:25;7.10;;;5.80;;
52033;SDS011;38045;52.988;6.536;2023-07-08T15:12:54;12.82;;;6.55;;
52033;SDS011;38045;52.988;6.536;2023-07-08T15:15:34;6.60;;;5.65;;
52033;SDS011;38045;52.988;6.536;2023-07-08T15:18:05;8.40;;;5.90;;
52033;SDS011;38045;52.988;6.536;2023-07-08T15:20:38;6.20;;;5.45;;
52033;SDS011;38045;52.988;6.536;2023-07-08T15:23:08;8.65;;;6.10;;
52033;SDS011;38045;52.988;6.536;2023-07-08T15:25:40;9.23;;;5.30;;
52033;SDS011;38045;52.988;6.536;2023-07-08T15:28:15;6.72;;;5.95;;
52033;SDS011;38045;52.988;6.536;2023-07-08T15:31:10;9.93;;;6.82;;
52033;SDS011;38045;52.988;6.536;2023-07-08T15:33:37;6.65;;;6.05;;
52033;SDS011;38045;52.988;6.536;2023-07-08T15:36:04;9.90;;;6.07;;
52033;SDS011;38045;52.988;6.536;2023-07-08T15:38:35;7.97;;;6.80;;
52033;SDS011;38045;52.988;6.536;2023-07-08T15:41:02;8.52;;;6.53;;
52033;SDS011;38045;52.988;6.536;2023-07-08T15:43:32;7.38;;;6.53;;
52033;SDS011;38045;52.988;6.536;2023-07-08T15:46:01;10.07;;;5.97;;
52033;SDS011;38045;52.988;6.536;2023-07-08T15:48:28;7.15;;;6.43;;
52033;SDS011;38045;52.988;6.536;2023-07-08T15:50:55;6.85;;;6.15;;
52033;SDS011;38045;52.988;6.536;2023-07-08T15:53:23;7.18;;;6.05;;
52033;SDS011;38045;52.988;6.536;2023-07-08T15:55:52;7.25;;;6.30;;
52033;SDS011;38045;52.988;6.536;2023-07-08T15:58:28;9.32;;;5.85;;
52033;SDS011;38045;52.988;6.536;2023-07-08T16:01:01;8.68;;;7.00;;
52033;SDS011;38045;52.988;6.536;2023-07-08T16:03:30;14.15;;;7.05;;
52033;SDS011;38045;52.988;6.536;2023-07-08T16:06:01;7.70;;;7.00;;
52033;SDS011;38045;52.988;6.536;2023-07-08T16:08:28;6.60;;;5.82;;
52033;SDS011;38045;52.988;6.536;2023-07-08T16:11:00;12.32;;;6.40;;
52033;SDS011;38045;52.988;6.536;2023-07-08T16:13:34;6.72;;;6.03;;
52033;SDS011;38045;52.988;6.536;2023-07-08T16:16:04;7.75;;;5.32;;
52033;SDS011;38045;52.988;6.536;2023-07-08T16:20:59;6.18;;;5.55;;
52033;SDS011;38045;52.988;6.536;2023-07-08T16:23:26;7.15;;;6.45;;
52033;SDS011;38045;52.988;6.536;2023-07-08T16:25:56;7.82;;;5.82;;
52033;SDS011;38045;52.988;6.536;2023-07-08T16:28:27;8.80;;;6.80;;
52033;SDS011;38045;52.988;6.536;2023-07-08T16:31:12;6.03;;;5.40;;
52033;SDS011;38045;52.988;6.536;2023-07-08T16:33:41;7.22;;;6.35;;